createdAt,value
2022-07-30T00:00:50.794Z,18.00
2022-07-30T00:03:17.947Z,18.00
2022-07-30T00:05:45.062Z,17.80
2022-07-30T00:08:12.341Z,17.80
2022-07-30T00:10:40.294Z,17.70
2022-07-30T00:13:07.759Z,17.70
2022-07-30T00:15:34.924Z,17.80
2022-07-30T00:18:01.998Z,17.70
2022-07-30T00:20:29.961Z,17.80
2022-07-30T00:23:02.245Z,17.70
2022-07-30T00:25:29.360Z,17.70
2022-07-30T00:27:56.568Z,17.60
2022-07-30T00:30:24.213Z,17.60
2022-07-30T00:32:51.585Z,17.60
2022-07-30T00:35:18.933Z,17.60
2022-07-30T00:37:45.938Z,17.40
2022-07-30T00:40:13.542Z,17.40
2022-07-30T00:42:46.342Z,17.40
2022-07-30T00:45:15.767Z,17.40
2022-07-30T00:47:43.296Z,17.40
2022-07-30T00:50:12.689Z,17.30
2022-07-30T00:52:40.702Z,17.30
2022-07-30T00:55:12.221Z,17.30
2022-07-30T00:57:40.289Z,17.20
2022-07-30T01:00:14.358Z,17.10
2022-07-30T01:02:41.396Z,17.10
2022-07-30T01:05:09.394Z,17.20
2022-07-30T01:07:36.938Z,17.10
2022-07-30T01:10:06.440Z,17.10
2022-07-30T01:12:33.905Z,17.10
2022-07-30T01:15:04.934Z,17.00
2022-07-30T01:17:32.305Z,16.90
2022-07-30T01:20:11.250Z,17.00
2022-07-30T01:23:04.975Z,17.00
2022-07-30T01:25:32.367Z,17.00
2022-07-30T01:28:09.331Z,16.90
2022-07-30T01:30:45.749Z,16.90
2022-07-30T01:33:16.988Z,16.80
2022-07-30T01:35:47.331Z,16.80
2022-07-30T01:38:17.268Z,16.80
2022-07-30T01:40:46.784Z,16.80
2022-07-30T01:43:14.987Z,16.70
2022-07-30T01:45:44.318Z,16.70
2022-07-30T01:48:14.987Z,16.70
2022-07-30T01:50:46.652Z,16.60
2022-07-30T01:53:25.822Z,16.50
2022-07-30T01:55:56.216Z,16.40
2022-07-30T01:58:29.372Z,16.50
2022-07-30T02:00:58.821Z,16.40
2022-07-30T02:03:27.381Z,16.30
2022-07-30T02:06:13.577Z,16.40
2022-07-30T02:08:58.067Z,16.40
2022-07-30T02:11:43.843Z,16.30
2022-07-30T02:14:34.075Z,16.30
2022-07-30T02:17:04.669Z,16.30
2022-07-30T02:19:41.796Z,16.20
2022-07-30T02:22:15.969Z,16.20
2022-07-30T02:24:44.471Z,16.10
2022-07-30T02:27:27.261Z,16.10
2022-07-30T02:29:58.477Z,16.10
2022-07-30T02:32:29.712Z,16.00
2022-07-30T02:35:01.747Z,16.00
2022-07-30T02:37:42.773Z,16.00
2022-07-30T02:40:19.330Z,15.90
2022-07-30T02:42:50.113Z,15.90
2022-07-30T02:45:18.487Z,15.80
2022-07-30T02:47:55.040Z,15.80
2022-07-30T02:50:24.535Z,15.70
2022-07-30T02:52:53.416Z,15.70
2022-07-30T02:55:22.058Z,15.60
2022-07-30T02:57:52.609Z,15.60
2022-07-30T03:00:21.315Z,15.60
2022-07-30T03:02:49.261Z,15.60
2022-07-30T03:05:16.450Z,15.60
2022-07-30T03:07:44.585Z,15.60
2022-07-30T03:10:13.362Z,15.50
2022-07-30T03:12:44.479Z,15.40
2022-07-30T03:15:12.305Z,15.30
2022-07-30T03:17:45.314Z,15.30
2022-07-30T03:20:18.900Z,15.30
2022-07-30T03:22:54.705Z,15.30
2022-07-30T03:25:27.334Z,15.20
2022-07-30T03:27:57.865Z,15.20
2022-07-30T03:30:26.634Z,15.20
2022-07-30T03:32:55.613Z,15.10
2022-07-30T03:35:26.777Z,15.10
2022-07-30T03:37:59.510Z,15.10
2022-07-30T03:40:27.047Z,15.10
2022-07-30T03:42:55.181Z,15.00
2022-07-30T03:45:22.855Z,15.10
2022-07-30T03:47:50.429Z,15.20
2022-07-30T03:50:17.543Z,15.10
2022-07-30T03:52:45.160Z,15.10
2022-07-30T03:55:13.312Z,15.10
2022-07-30T03:57:40.466Z,15.10
2022-07-30T04:00:13.973Z,15.00
2022-07-30T04:02:46.585Z,14.90
2022-07-30T04:05:14.814Z,14.80
2022-07-30T04:07:45.084Z,14.70
2022-07-30T04:10:14.182Z,14.70
2022-07-30T04:12:41.534Z,14.70
2022-07-30T04:16:37.911Z,14.70
2022-07-30T04:18:03.661Z,14.70
2022-07-30T04:20:40.226Z,14.70
2022-07-30T04:23:08.810Z,14.70
2022-07-30T04:25:36.122Z,14.70
2022-07-30T04:28:05.695Z,14.80
2022-07-30T04:30:34.962Z,14.80
2022-07-30T04:33:05.864Z,14.70
2022-07-30T04:35:51.312Z,14.80
2022-07-30T04:38:20.713Z,14.80
2022-07-30T04:40:48.432Z,14.90
2022-07-30T04:43:16.006Z,14.90
2022-07-30T04:45:43.224Z,15.00
2022-07-30T04:48:10.264Z,15.00
2022-07-30T04:50:41.737Z,15.10
2022-07-30T04:53:10.564Z,15.20
2022-07-30T04:55:43.347Z,15.20
2022-07-30T04:58:12.452Z,15.30
2022-07-30T05:00:41.847Z,15.40
2022-07-30T05:03:11.811Z,15.40
2022-07-30T05:05:40.591Z,15.50
2022-07-30T05:08:08.397Z,15.60
2022-07-30T05:10:35.946Z,15.70
2022-07-30T05:13:02.939Z,15.90
2022-07-30T05:15:36.905Z,15.90
2022-07-30T05:18:04.776Z,15.90
2022-07-30T05:20:32.055Z,16.00
2022-07-30T05:22:59.068Z,16.20
2022-07-30T05:25:26.255Z,16.30
2022-07-30T05:27:53.999Z,16.40
2022-07-30T05:30:26.149Z,16.30
2022-07-30T05:32:56.041Z,16.50
2022-07-30T05:35:23.484Z,16.60
2022-07-30T05:37:50.497Z,16.70
2022-07-30T05:40:17.697Z,16.70
2022-07-30T05:42:44.820Z,16.80
2022-07-30T05:45:11.887Z,16.90
2022-07-30T05:47:39.106Z,17.00
2022-07-30T05:50:06.671Z,17.00
2022-07-30T05:52:34.021Z,17.20
2022-07-30T05:55:01.387Z,17.30
2022-07-30T05:57:28.412Z,17.30
2022-07-30T05:59:55.563Z,17.40
2022-07-30T06:02:24.231Z,17.40
2022-07-30T06:04:52.977Z,17.60
2022-07-30T06:07:20.063Z,17.60
2022-07-30T06:09:47.103Z,17.80
2022-07-30T06:12:14.197Z,17.70
2022-07-30T06:14:41.477Z,17.60
2022-07-30T06:17:08.456Z,17.80
2022-07-30T06:19:35.705Z,17.60
2022-07-30T06:22:06.735Z,17.80
2022-07-30T06:24:34.603Z,17.90
2022-07-30T06:27:02.380Z,17.90
2022-07-30T06:29:29.619Z,18.30
2022-07-30T06:31:56.889Z,18.20
2022-07-30T06:34:23.889Z,18.20
2022-07-30T06:36:51.195Z,18.40
2022-07-30T06:39:57.033Z,18.00
2022-07-30T06:42:05.457Z,18.20
2022-07-30T06:44:32.510Z,18.10
2022-07-30T06:47:02.968Z,18.10
2022-07-30T06:49:35.838Z,18.20
2022-07-30T06:52:03.557Z,18.80
2022-07-30T06:54:30.857Z,18.80
2022-07-30T06:56:58.396Z,18.60
2022-07-30T06:59:27.628Z,18.60
2022-07-30T07:01:54.849Z,18.60
2022-07-30T07:04:22.119Z,18.80
2022-07-30T07:06:50.210Z,19.10
2022-07-30T07:09:17.239Z,19.10
2022-07-30T07:11:44.231Z,19.30
2022-07-30T07:14:11.279Z,19.10
2022-07-30T07:16:38.423Z,18.70
2022-07-30T07:19:05.519Z,19.10
2022-07-30T07:21:32.588Z,19.30
2022-07-30T07:24:00.687Z,19.00
2022-07-30T07:26:27.654Z,19.00
2022-07-30T07:28:54.696Z,19.40
2022-07-30T07:32:06.573Z,19.40
2022-07-30T07:34:11.456Z,19.50
2022-07-30T07:36:41.266Z,19.20
2022-07-30T07:39:09.884Z,19.10
2022-07-30T07:41:48.409Z,19.20
2022-07-30T07:44:16.311Z,19.40
2022-07-30T07:46:44.036Z,20.00
2022-07-30T07:49:11.155Z,20.00
2022-07-30T07:51:48.268Z,19.70
2022-07-30T07:54:22.257Z,19.80
2022-07-30T07:56:57.445Z,20.20
2022-07-30T07:59:27.789Z,20.10
2022-07-30T08:02:07.956Z,20.20
2022-07-30T08:04:36.062Z,20.40
2022-07-30T08:07:04.215Z,20.50
2022-07-30T08:09:43.670Z,20.40
2022-07-30T08:12:13.084Z,20.20
2022-07-30T08:14:40.550Z,20.10
2022-07-30T08:17:08.228Z,20.30
2022-07-30T08:19:35.609Z,20.10
2022-07-30T08:22:02.593Z,20.50
2022-07-30T08:24:29.579Z,20.40
2022-07-30T08:26:57.001Z,20.70
2022-07-30T08:29:24.014Z,20.40
2022-07-30T08:31:51.057Z,20.30
2022-07-30T08:34:19.174Z,20.40
2022-07-30T08:36:52.761Z,20.30
2022-07-30T08:39:19.776Z,20.60
2022-07-30T08:41:47.031Z,20.50
2022-07-30T08:44:17.194Z,20.70
2022-07-30T08:46:47.245Z,21.00
2022-07-30T08:49:15.939Z,21.30
2022-07-30T08:51:43.615Z,21.60
2022-07-30T08:54:10.915Z,21.40
2022-07-30T08:56:38.551Z,20.80
2022-07-30T08:59:05.811Z,21.20
2022-07-30T09:01:32.918Z,20.90
2022-07-30T09:03:59.992Z,21.00
2022-07-30T09:06:27.702Z,21.20
2022-07-30T09:08:54.829Z,21.60
2022-07-30T09:11:22.209Z,21.80
2022-07-30T09:13:50.891Z,21.50
2022-07-30T09:16:26.751Z,21.20
2022-07-30T09:18:55.011Z,21.40
2022-07-30T09:21:26.548Z,21.80
2022-07-30T09:24:00.295Z,22.10
2022-07-30T09:26:28.491Z,22.10
2022-07-30T09:28:56.095Z,21.80
2022-07-30T09:31:23.912Z,21.60
2022-07-30T09:33:50.964Z,21.50
2022-07-30T09:36:18.732Z,21.70
2022-07-30T09:38:54.052Z,22.00
2022-07-30T09:41:39.396Z,22.10
2022-07-30T09:44:07.811Z,22.00
2022-07-30T09:46:47.684Z,22.30
2022-07-30T09:49:17.552Z,22.00
2022-07-30T09:51:54.472Z,22.00
2022-07-30T09:54:50.966Z,22.00
2022-07-30T09:57:25.869Z,22.50
2022-07-30T10:00:15.506Z,22.60
2022-07-30T10:02:42.723Z,22.70
2022-07-30T10:05:15.627Z,22.60
2022-07-30T10:07:51.147Z,22.70
2022-07-30T10:10:50.648Z,22.90
2022-07-30T10:13:20.711Z,22.40
2022-07-30T10:15:50.234Z,22.50
2022-07-30T10:18:18.355Z,22.70
2022-07-30T10:20:45.677Z,22.70
2022-07-30T10:23:15.618Z,22.90
2022-07-30T10:25:49.161Z,22.90
2022-07-30T10:28:24.691Z,23.30
2022-07-30T10:30:55.185Z,23.40
2022-07-30T10:33:36.334Z,23.40
2022-07-30T10:36:10.528Z,23.20
2022-07-30T10:38:41.370Z,23.10
2022-07-30T10:41:42.697Z,23.50
2022-07-30T10:44:45.697Z,23.60
2022-07-30T10:47:18.598Z,23.30
2022-07-30T10:50:11.571Z,23.40
2022-07-30T10:53:01.130Z,23.40
2022-07-30T10:55:38.621Z,23.70
2022-07-30T10:58:15.728Z,23.60
2022-07-30T11:00:53.872Z,23.60
2022-07-30T11:03:41.359Z,23.70
2022-07-30T11:06:15.223Z,23.90
2022-07-30T11:08:45.424Z,24.10
2022-07-30T11:12:01.977Z,24.10
2022-07-30T11:14:08.576Z,23.90
2022-07-30T11:16:35.487Z,24.30
2022-07-30T11:19:56.354Z,24.80
2022-07-30T11:22:25.119Z,24.50
2022-07-30T11:24:53.395Z,24.30
2022-07-30T11:27:46.571Z,24.60
2022-07-30T11:30:21.044Z,24.70
2022-07-30T11:32:53.619Z,24.90
2022-07-30T11:35:25.480Z,24.80
2022-07-30T11:38:07.747Z,24.80
2022-07-30T11:41:00.821Z,24.60
2022-07-30T11:43:35.221Z,24.50
2022-07-30T11:46:28.448Z,25.10
2022-07-30T11:49:05.594Z,25.50
2022-07-30T11:51:43.997Z,25.50
2022-07-30T11:54:12.181Z,25.20
2022-07-30T11:56:54.021Z,25.50
2022-07-30T11:59:21.530Z,25.40
2022-07-30T12:01:57.061Z,25.40
2022-07-30T12:04:24.614Z,25.60
2022-07-30T12:06:51.924Z,25.40
2022-07-30T12:09:27.317Z,25.80
2022-07-30T12:11:55.892Z,25.70
2022-07-30T12:14:23.268Z,25.70
2022-07-30T12:16:53.047Z,25.60
2022-07-30T12:19:20.332Z,25.60
2022-07-30T12:21:52.522Z,25.20
2022-07-30T12:24:26.824Z,25.50
2022-07-30T12:27:08.008Z,25.60
2022-07-30T12:29:35.810Z,26.10
2022-07-30T12:32:03.608Z,26.20
2022-07-30T12:34:30.694Z,26.40
2022-07-30T12:37:09.956Z,26.30
2022-07-30T12:39:37.510Z,26.40
2022-07-30T12:42:05.053Z,26.00
2022-07-30T12:44:44.974Z,26.20
2022-07-30T12:47:28.732Z,26.20
2022-07-30T12:50:01.573Z,26.60
2022-07-30T12:52:32.210Z,26.50
2022-07-30T12:55:12.286Z,26.50
2022-07-30T12:58:07.605Z,26.10
2022-07-30T13:00:53.691Z,26.20
2022-07-30T13:03:27.242Z,25.90
2022-07-30T13:05:56.864Z,25.80
2022-07-30T13:09:03.091Z,26.30
2022-07-30T13:11:48.699Z,26.70
2022-07-30T13:14:17.390Z,26.50
2022-07-30T13:16:44.605Z,26.60
2022-07-30T13:19:12.814Z,26.40
2022-07-30T13:21:48.670Z,26.50
2022-07-30T13:24:18.511Z,26.50
2022-07-30T13:26:46.664Z,27.10
2022-07-30T13:29:13.919Z,27.20
2022-07-30T13:31:42.801Z,26.40
2022-07-30T13:34:11.970Z,26.60
2022-07-30T13:36:39.323Z,26.80
2022-07-30T13:39:06.501Z,27.00
2022-07-30T13:41:36.170Z,27.40
2022-07-30T13:44:04.399Z,27.10
2022-07-30T13:46:31.434Z,27.20
2022-07-30T13:48:58.609Z,27.60
2022-07-30T13:51:25.940Z,27.60
2022-07-30T13:53:53.160Z,27.60
2022-07-30T13:56:20.158Z,27.20
2022-07-30T13:58:48.034Z,27.20
2022-07-30T14:01:17.763Z,27.10
2022-07-30T14:03:50.022Z,27.10
2022-07-30T14:06:19.508Z,26.60
2022-07-30T14:08:46.727Z,26.60
2022-07-30T14:11:14.113Z,26.90
2022-07-30T14:13:41.559Z,27.40
2022-07-30T14:16:28.562Z,27.60
2022-07-30T14:18:57.458Z,27.20
2022-07-30T14:21:24.972Z,26.80
2022-07-30T14:23:51.958Z,27.50
2022-07-30T14:26:19.081Z,27.70
2022-07-30T14:28:46.160Z,27.60
2022-07-30T14:31:13.213Z,27.50
2022-07-30T14:33:40.340Z,27.80
2022-07-30T14:36:07.487Z,28.20
2022-07-30T14:38:34.670Z,27.80
2022-07-30T14:41:01.755Z,28.10
2022-07-30T14:43:28.826Z,28.20
2022-07-30T14:45:55.823Z,28.10
2022-07-30T14:48:22.893Z,28.00
2022-07-30T14:51:12.049Z,28.30
2022-07-30T14:53:37.748Z,28.50
2022-07-30T14:56:05.809Z,28.00
2022-07-30T14:58:33.083Z,28.20
2022-07-30T15:01:14.953Z,28.10
2022-07-30T15:03:45.679Z,27.60
2022-07-30T15:06:15.113Z,28.20
2022-07-30T15:08:43.387Z,28.70
2022-07-30T15:11:10.841Z,29.20
2022-07-30T15:13:49.802Z,29.10
2022-07-30T15:16:20.372Z,28.90
2022-07-30T15:18:47.607Z,28.70
2022-07-30T15:21:14.869Z,28.40
2022-07-30T15:23:41.950Z,28.50
2022-07-30T15:26:09.051Z,28.50
2022-07-30T15:28:36.277Z,28.70
2022-07-30T15:31:03.622Z,28.20
2022-07-30T15:33:31.031Z,28.70
2022-07-30T15:36:03.705Z,28.80
2022-07-30T15:38:30.727Z,28.50
2022-07-30T15:40:57.989Z,28.30
2022-07-30T15:43:24.973Z,28.10
2022-07-30T15:45:56.034Z,28.20
2022-07-30T15:48:27.380Z,28.20
2022-07-30T15:51:05.768Z,28.20
2022-07-30T15:53:33.706Z,28.20
2022-07-30T15:56:01.144Z,27.90
2022-07-30T15:58:28.335Z,27.80
2022-07-30T16:00:55.534Z,27.80
2022-07-30T16:03:22.742Z,27.60
2022-07-30T16:05:51.359Z,27.50
2022-07-30T16:08:22.931Z,27.10
2022-07-30T16:10:50.333Z,27.40
2022-07-30T16:13:18.037Z,27.10
2022-07-30T16:15:45.793Z,27.20
2022-07-30T16:18:13.017Z,27.20
2022-07-30T16:20:40.137Z,27.60
2022-07-30T16:23:12.029Z,28.00
2022-07-30T16:25:41.040Z,27.80
2022-07-30T16:28:08.350Z,27.60
2022-07-30T16:30:35.427Z,27.60
2022-07-30T16:33:18.864Z,27.50
2022-07-30T16:35:48.927Z,27.40
2022-07-30T16:38:17.824Z,27.30
2022-07-30T16:40:45.461Z,27.20
2022-07-30T16:43:12.610Z,27.40
2022-07-30T16:45:43.781Z,27.40
2022-07-30T16:48:11.924Z,27.40
2022-07-30T16:50:40.699Z,27.20
2022-07-30T16:53:13.534Z,27.40
2022-07-30T16:55:45.331Z,27.20
2022-07-30T16:58:13.164Z,27.30
2022-07-30T17:00:40.692Z,27.20
2022-07-30T17:03:08.310Z,27.30
2022-07-30T17:05:35.549Z,27.40
2022-07-30T17:08:05.716Z,27.30
2022-07-30T17:10:35.638Z,27.40
2022-07-30T17:13:02.743Z,27.20
2022-07-30T17:15:32.382Z,27.20
2022-07-30T17:18:03.215Z,27.20
2022-07-30T17:20:31.415Z,26.90
2022-07-30T17:22:58.518Z,26.90
2022-07-30T17:25:27.484Z,26.90
2022-07-30T17:27:59.015Z,26.80
2022-07-30T17:30:28.714Z,26.80
2022-07-30T17:32:56.250Z,26.70
2022-07-30T17:35:24.725Z,26.60
2022-07-30T17:37:52.470Z,26.50
2022-07-30T17:40:28.804Z,26.40
2022-07-30T17:43:03.349Z,26.30
2022-07-30T17:45:33.054Z,26.40
2022-07-30T17:48:01.699Z,26.20
2022-07-30T17:50:30.207Z,26.20
2022-07-30T17:52:57.273Z,26.20
2022-07-30T17:55:25.364Z,26.10
2022-07-30T17:57:52.464Z,26.00
2022-07-30T18:00:19.853Z,25.90
2022-07-30T18:02:46.922Z,25.70
2022-07-30T18:05:15.638Z,25.60
2022-07-30T18:07:43.830Z,25.50
2022-07-30T18:10:11.869Z,25.50
2022-07-30T18:12:39.562Z,25.50
2022-07-30T18:15:17.577Z,25.50
2022-07-30T18:17:45.059Z,25.40
2022-07-30T18:20:12.564Z,25.30
2022-07-30T18:22:40.497Z,25.40
2022-07-30T18:25:18.715Z,25.50
2022-07-30T18:27:47.666Z,25.50
2022-07-30T18:30:15.871Z,25.40
2022-07-30T18:32:44.914Z,25.50
2022-07-30T18:35:14.731Z,25.40
2022-07-30T18:37:45.555Z,25.30
2022-07-30T18:40:17.703Z,25.20
2022-07-30T18:42:48.003Z,25.20
2022-07-30T18:45:15.097Z,25.10
2022-07-30T18:47:46.555Z,25.10
2022-07-30T18:50:15.838Z,25.00
2022-07-30T18:52:43.153Z,24.90
2022-07-30T18:55:12.155Z,24.90
2022-07-30T18:57:40.614Z,24.90
2022-07-30T19:00:30.849Z,24.70
2022-07-30T19:03:02.861Z,24.70
2022-07-30T19:05:30.003Z,24.60
2022-07-30T19:07:58.769Z,24.60
2022-07-30T19:10:29.245Z,24.60
2022-07-30T19:12:56.685Z,24.40
2022-07-30T19:15:24.425Z,24.40
2022-07-30T19:17:51.997Z,24.20
2022-07-30T19:20:20.195Z,24.30
2022-07-30T19:22:47.263Z,24.30
2022-07-30T19:25:14.503Z,24.20
2022-07-30T19:27:41.694Z,24.10
2022-07-30T19:30:09.651Z,24.10
2022-07-30T19:32:36.694Z,23.90
2022-07-30T19:35:04.452Z,24.00
2022-07-30T19:37:37.266Z,24.00
2022-07-30T19:40:08.589Z,23.90
2022-07-30T19:42:36.745Z,23.90
2022-07-30T19:45:12.124Z,23.70
2022-07-30T19:47:42.541Z,23.80
2022-07-30T19:50:11.234Z,23.70
2022-07-30T19:52:40.528Z,23.60
2022-07-30T19:55:35.177Z,23.60
2022-07-30T19:58:16.282Z,23.50
2022-07-30T20:00:49.774Z,23.30
2022-07-30T20:03:25.282Z,23.30
2022-07-30T20:05:54.730Z,23.30
2022-07-30T20:08:25.759Z,23.30
2022-07-30T20:10:53.255Z,23.20
2022-07-30T20:13:20.327Z,23.20
2022-07-30T20:15:49.671Z,23.00
2022-07-30T20:18:28.812Z,23.10
2022-07-30T20:20:57.510Z,23.10
2022-07-30T20:23:25.078Z,22.90
2022-07-30T20:25:52.591Z,22.90
2022-07-30T20:28:21.494Z,22.90
2022-07-30T20:30:49.523Z,22.80
2022-07-30T20:33:16.831Z,22.80
2022-07-30T20:36:00.198Z,22.70
2022-07-30T20:38:27.286Z,22.60
2022-07-30T20:40:54.324Z,22.50
2022-07-30T20:43:21.830Z,22.60
2022-07-30T20:45:48.827Z,22.40
2022-07-30T20:48:25.384Z,22.20
2022-07-30T20:50:52.874Z,22.20
2022-07-30T20:53:22.017Z,22.20
2022-07-30T20:55:50.384Z,22.20
2022-07-30T20:58:19.707Z,22.20
2022-07-30T21:00:49.635Z,22.10
2022-07-30T21:03:21.739Z,22.10
2022-07-30T21:05:51.189Z,22.10
2022-07-30T21:08:25.112Z,22.00
2022-07-30T21:10:53.212Z,22.00
2022-07-30T21:13:22.474Z,21.90
2022-07-30T21:16:02.788Z,21.90
2022-07-30T21:18:32.776Z,22.00
2022-07-30T21:21:00.841Z,22.00
2022-07-30T21:23:28.373Z,21.80
2022-07-30T21:26:01.369Z,21.70
2022-07-30T21:28:35.160Z,21.60
2022-07-30T21:31:03.834Z,21.60
2022-07-30T21:33:36.455Z,21.60
2022-07-30T21:36:04.596Z,21.40
2022-07-30T21:38:31.971Z,21.30
2022-07-30T21:41:01.691Z,21.30
2022-07-30T21:43:30.562Z,21.20
2022-07-30T21:46:03.833Z,21.10
2022-07-30T21:48:33.579Z,21.20
2022-07-30T21:51:01.457Z,21.10
2022-07-30T21:53:44.489Z,21.00
2022-07-30T21:56:13.048Z,20.90
2022-07-30T21:58:40.141Z,20.80
2022-07-30T22:01:16.646Z,20.80
2022-07-30T22:04:04.603Z,20.80
2022-07-30T22:06:38.011Z,20.80
2022-07-30T22:09:18.674Z,20.70
2022-07-30T22:11:54.007Z,20.60
2022-07-30T22:14:21.032Z,20.70
2022-07-30T22:16:48.051Z,20.60
2022-07-30T22:19:15.877Z,20.60
2022-07-30T22:21:46.308Z,20.60
2022-07-30T22:24:29.531Z,20.60
2022-07-30T22:27:10.879Z,20.50
2022-07-30T22:29:43.072Z,20.60
2022-07-30T22:32:11.559Z,20.50
2022-07-30T22:34:38.705Z,20.70
2022-07-30T22:37:09.202Z,20.60
2022-07-30T22:39:51.116Z,20.60
2022-07-30T22:42:23.948Z,20.60
2022-07-30T22:44:52.452Z,20.60
2022-07-30T22:47:51.417Z,20.50
2022-07-30T22:50:08.265Z,20.50
2022-07-30T22:52:44.378Z,20.50
2022-07-30T22:55:25.863Z,20.50
2022-07-30T22:57:53.855Z,20.40
2022-07-30T23:00:27.311Z,20.30
2022-07-30T23:02:56.866Z,20.30
2022-07-30T23:05:25.090Z,20.30
2022-07-30T23:07:52.266Z,20.20
2022-07-30T23:10:20.687Z,20.20
2022-07-30T23:12:51.879Z,19.90
2022-07-30T23:15:20.177Z,19.90
2022-07-30T23:17:47.873Z,20.00
2022-07-30T23:20:20.334Z,19.90
2022-07-30T23:22:48.336Z,19.90
2022-07-30T23:25:15.714Z,19.90
2022-07-30T23:27:43.330Z,20.00
2022-07-30T23:30:11.636Z,20.00
2022-07-30T23:32:40.011Z,20.00
2022-07-30T23:35:08.987Z,20.00
2022-07-30T23:37:48.903Z,20.00
2022-07-30T23:40:18.580Z,19.90
2022-07-30T23:42:46.326Z,20.00
2022-07-30T23:45:13.894Z,19.80
2022-07-30T23:47:56.564Z,19.80
2022-07-30T23:50:28.215Z,19.80
2022-07-30T23:52:55.737Z,19.70
2022-07-30T23:55:22.934Z,19.70
2022-07-30T23:57:50.097Z,19.60
